createdAt,value
2023-03-27T00:00:13.507Z,9.60
2023-03-27T00:01:17.954Z,9.20
2023-03-27T00:02:20.511Z,7.80
2023-03-27T00:03:24.754Z,8.80
2023-03-27T00:04:27.141Z,10.30
2023-03-27T00:05:29.315Z,9.40
2023-03-27T00:06:31.874Z,9.00
2023-03-27T00:07:34.104Z,10.60
2023-03-27T00:08:36.889Z,7.80
2023-03-27T00:09:39.445Z,7.45
2023-03-27T00:10:41.574Z,11.70
2023-03-27T00:11:43.869Z,8.90
2023-03-27T00:12:46.675Z,9.30
2023-03-27T00:13:50.197Z,8.60
2023-03-27T00:14:52.842Z,7.10
2023-03-27T00:15:56.817Z,9.10
2023-03-27T00:16:59.108Z,8.30
2023-03-27T00:18:01.890Z,8.40
2023-03-27T00:19:04.405Z,6.00
2023-03-27T00:20:06.972Z,6.90
2023-03-27T00:21:09.244Z,8.40
2023-03-27T00:22:11.786Z,9.10
2023-03-27T00:23:13.899Z,12.00
2023-03-27T00:24:16.514Z,8.90
2023-03-27T00:25:18.973Z,7.60
2023-03-27T00:26:21.987Z,8.50
2023-03-27T00:27:24.331Z,11.09
2023-03-27T00:28:28.765Z,8.10
2023-03-27T00:29:31.497Z,10.70
2023-03-27T00:30:34.914Z,8.10
2023-03-27T00:31:37.234Z,12.40
2023-03-27T00:32:40.256Z,9.40
2023-03-27T00:33:42.723Z,9.50
2023-03-27T00:34:45.466Z,9.80
2023-03-27T00:35:49.815Z,9.80
2023-03-27T00:36:52.438Z,8.90
2023-03-27T00:37:55.300Z,7.90
2023-03-27T00:38:57.639Z,3.90
2023-03-27T00:40:00.233Z,9.50
2023-03-27T00:41:02.576Z,7.20
2023-03-27T00:42:05.002Z,5.40
2023-03-27T00:43:25.858Z,8.20
2023-03-27T00:44:31.172Z,8.00
2023-03-27T00:45:33.887Z,5.30
2023-03-27T00:46:42.798Z,4.82
2023-03-27T00:47:48.390Z,4.90
2023-03-27T00:48:54.827Z,4.40
2023-03-27T00:49:59.914Z,6.30
2023-03-27T00:51:04.184Z,6.20
2023-03-27T00:52:07.520Z,5.30
2023-03-27T00:53:13.296Z,6.40
2023-03-27T00:54:18.592Z,5.20
2023-03-27T00:55:24.793Z,1.18
2023-03-27T00:56:28.003Z,6.60
2023-03-27T00:57:33.498Z,7.60
2023-03-27T00:59:54.545Z,9.80
2023-03-27T01:00:57.560Z,8.40
2023-03-27T01:02:03.182Z,6.70
2023-03-27T01:03:08.319Z,6.40
2023-03-27T01:04:10.771Z,6.90
2023-03-27T01:05:13.171Z,6.80
2023-03-27T01:06:16.743Z,7.80
2023-03-27T01:07:20.896Z,7.60
2023-03-27T01:08:24.919Z,8.40
2023-03-27T01:09:27.200Z,8.90
2023-03-27T01:12:01.516Z,11.10
2023-03-27T01:13:21.164Z,9.80
2023-03-27T01:14:33.272Z,9.10
2023-03-27T01:15:42.105Z,7.80
2023-03-27T01:16:57.279Z,6.20
2023-03-27T01:18:18.253Z,7.50
2023-03-27T01:19:42.111Z,5.20
2023-03-27T01:20:57.582Z,6.00
2023-03-27T01:22:17.589Z,6.90
2023-03-27T01:24:00.596Z,6.40
2023-03-27T01:25:11.214Z,7.70
2023-03-27T01:26:43.135Z,6.80
2023-03-27T01:27:55.184Z,7.40
2023-03-27T01:29:33.297Z,8.50
2023-03-27T01:31:00.309Z,6.50
2023-03-27T01:32:36.127Z,6.20
2023-03-27T01:33:56.683Z,7.80
2023-03-27T01:35:18.099Z,5.90
2023-03-27T01:36:42.980Z,8.60
2023-03-27T01:39:28.432Z,4.50
2023-03-27T01:40:37.788Z,5.60
2023-03-27T01:43:12.127Z,5.70
2023-03-27T01:44:20.956Z,4.60
2023-03-27T01:45:38.605Z,4.70
2023-03-27T01:48:18.873Z,3.80
2023-03-27T01:49:24.771Z,6.40
2023-03-27T01:50:40.466Z,4.10
2023-03-27T01:53:20.541Z,5.40
2023-03-27T01:54:32.089Z,4.40
2023-03-27T01:55:37.985Z,4.50
2023-03-27T01:56:49.967Z,6.30
2023-03-27T01:58:04.815Z,6.40
2023-03-27T01:59:11.196Z,6.20
2023-03-27T02:00:19.619Z,8.10
2023-03-27T02:01:25.261Z,5.60
2023-03-27T02:02:32.757Z,6.40
2023-03-27T02:03:50.824Z,7.00
2023-03-27T02:04:56.835Z,6.80
2023-03-27T02:06:02.910Z,7.20
2023-03-27T02:07:10.232Z,6.40
2023-03-27T02:09:37.763Z,8.90
2023-03-27T02:10:43.637Z,5.20
2023-03-27T02:12:00.610Z,4.10
2023-03-27T02:13:09.527Z,4.90
2023-03-27T02:14:19.154Z,5.60
2023-03-27T02:16:41.383Z,5.40
2023-03-27T02:17:53.278Z,3.90
2023-03-27T02:18:59.479Z,5.30
2023-03-27T02:20:08.553Z,4.20
2023-03-27T02:21:11.100Z,5.30
2023-03-27T02:22:14.544Z,3.40
2023-03-27T02:23:18.889Z,6.30
2023-03-27T02:24:21.306Z,4.40
2023-03-27T02:25:28.360Z,4.00
2023-03-27T02:26:32.674Z,4.30
2023-03-27T02:27:44.117Z,5.90
2023-03-27T02:30:24.529Z,5.60
2023-03-27T02:31:45.299Z,5.30
2023-03-27T02:32:58.823Z,3.80
2023-03-27T02:34:23.138Z,5.70
2023-03-27T02:36:56.737Z,6.90
2023-03-27T02:38:19.972Z,5.90
2023-03-27T02:39:37.100Z,7.20
2023-03-27T02:40:55.249Z,5.60
2023-03-27T02:44:56.987Z,5.10
2023-03-27T02:47:16.330Z,8.20
2023-03-27T02:48:22.615Z,5.80
2023-03-27T02:49:37.454Z,4.20
2023-03-27T02:50:49.728Z,6.30
2023-03-27T02:52:11.106Z,4.80
2023-03-27T02:53:17.040Z,4.50
2023-03-27T02:55:36.817Z,4.00
2023-03-27T02:56:43.311Z,4.00
2023-03-27T02:57:52.059Z,2.80
2023-03-27T02:59:11.694Z,3.50
2023-03-27T03:00:18.220Z,7.40
2023-03-27T03:01:24.398Z,5.40
2023-03-27T03:02:34.197Z,6.00
2023-03-27T03:05:06.373Z,8.20
2023-03-27T03:06:13.517Z,9.70
2023-03-27T03:07:15.809Z,7.00
2023-03-27T03:08:18.233Z,9.20
2023-03-27T03:09:21.008Z,9.27
2023-03-27T03:10:24.509Z,7.50
2023-03-27T03:11:27.715Z,8.80
2023-03-27T03:12:29.974Z,9.60
2023-03-27T03:13:32.428Z,11.00
2023-03-27T03:14:38.044Z,12.40
2023-03-27T03:15:40.278Z,13.20
2023-03-27T03:16:42.621Z,13.00
2023-03-27T03:17:45.721Z,11.70
2023-03-27T03:18:49.337Z,12.10
2023-03-27T03:19:51.752Z,13.45
2023-03-27T03:20:55.016Z,11.70
2023-03-27T03:21:57.593Z,14.30
2023-03-27T03:22:59.652Z,10.50
2023-03-27T03:24:02.306Z,8.50
2023-03-27T03:25:07.163Z,7.70
2023-03-27T03:26:10.341Z,6.50
2023-03-27T03:27:17.155Z,5.50
2023-03-27T03:28:21.717Z,7.90
2023-03-27T03:29:24.346Z,6.18
2023-03-27T03:30:28.709Z,6.80
2023-03-27T03:31:32.861Z,11.40
2023-03-27T03:32:35.767Z,10.73
2023-03-27T03:33:39.918Z,14.40
2023-03-27T03:34:42.201Z,20.40
2023-03-27T03:35:51.328Z,16.20
2023-03-27T03:36:55.831Z,14.90
2023-03-27T03:37:59.948Z,17.70
2023-03-27T03:39:03.989Z,16.00
2023-03-27T03:40:08.722Z,14.60
2023-03-27T03:41:11.819Z,13.10
2023-03-27T03:42:22.888Z,12.45
2023-03-27T03:43:19.926Z,7.90
2023-03-27T03:44:22.055Z,9.40
2023-03-27T03:45:25.055Z,10.40
2023-03-27T03:46:27.469Z,10.70
2023-03-27T03:47:29.698Z,5.60
2023-03-27T03:48:32.009Z,6.60
2023-03-27T03:49:34.299Z,7.90
2023-03-27T03:50:36.509Z,6.50
2023-03-27T03:51:38.805Z,5.00
2023-03-27T03:52:42.364Z,7.18
2023-03-27T03:53:44.705Z,6.55
2023-03-27T03:54:47.054Z,9.00
2023-03-27T03:55:51.651Z,5.60
2023-03-27T03:56:54.788Z,4.80
2023-03-27T03:57:57.257Z,9.91
2023-03-27T03:59:01.635Z,6.90
2023-03-27T04:01:16.966Z,7.40
2023-03-27T04:02:21.638Z,6.60
2023-03-27T04:03:24.460Z,6.60
2023-03-27T04:04:28.564Z,5.90
2023-03-27T04:05:33.094Z,6.40
2023-03-27T04:06:35.750Z,6.09
2023-03-27T04:07:39.879Z,6.00
2023-03-27T04:08:53.107Z,7.90
2023-03-27T04:09:57.968Z,6.00
2023-03-27T04:11:02.095Z,5.80
2023-03-27T04:12:21.302Z,4.80
2023-03-27T04:13:25.794Z,4.50
2023-03-27T04:14:30.023Z,8.80
2023-03-27T04:15:32.940Z,7.20
2023-03-27T04:16:37.999Z,5.30
2023-03-27T04:17:43.353Z,5.90
2023-03-27T04:18:45.887Z,6.00
2023-03-27T04:19:49.888Z,5.90
2023-03-27T04:20:54.383Z,6.90
2023-03-27T04:21:58.766Z,6.50
2023-03-27T04:23:03.626Z,7.60
2023-03-27T04:24:06.618Z,7.90
2023-03-27T04:25:10.659Z,8.00
2023-03-27T04:26:13.198Z,5.20
2023-03-27T04:28:28.116Z,6.60
2023-03-27T04:29:32.179Z,7.40
2023-03-27T04:30:34.759Z,7.10
2023-03-27T04:31:56.272Z,6.30
2023-03-27T04:33:16.865Z,5.70
2023-03-27T04:35:31.274Z,9.40
2023-03-27T04:36:35.424Z,7.70
2023-03-27T04:37:41.132Z,7.20
2023-03-27T04:38:45.639Z,8.80
2023-03-27T04:39:50.881Z,6.80
2023-03-27T04:40:54.978Z,6.70
2023-03-27T04:41:58.537Z,5.50
2023-03-27T04:43:02.670Z,5.30
2023-03-27T04:44:06.776Z,6.10
2023-03-27T04:45:12.858Z,6.60
2023-03-27T04:46:16.940Z,6.90
2023-03-27T04:47:19.638Z,7.30
2023-03-27T04:48:23.055Z,8.30
2023-03-27T04:49:28.673Z,8.00
2023-03-27T04:50:32.922Z,8.30
2023-03-27T04:51:35.230Z,7.60
2023-03-27T04:52:38.023Z,7.60
2023-03-27T04:53:40.851Z,10.20
2023-03-27T04:54:43.419Z,8.30
2023-03-27T04:55:47.342Z,9.20
2023-03-27T04:56:50.153Z,7.60
2023-03-27T04:57:55.896Z,8.30
2023-03-27T04:58:58.106Z,7.10
2023-03-27T05:00:02.264Z,8.10
2023-03-27T05:02:18.941Z,8.60
2023-03-27T05:03:23.426Z,9.80
2023-03-27T05:04:37.042Z,7.40
2023-03-27T05:05:41.207Z,6.10
2023-03-27T05:06:43.863Z,6.70
2023-03-27T05:07:49.128Z,6.80
2023-03-27T05:08:56.446Z,9.40
2023-03-27T05:10:00.576Z,8.60
2023-03-27T05:11:03.428Z,10.30
2023-03-27T05:12:07.556Z,9.10
2023-03-27T05:13:12.305Z,9.50
2023-03-27T05:14:16.505Z,10.09
2023-03-27T05:15:20.938Z,8.80
2023-03-27T05:16:23.639Z,7.70
2023-03-27T05:17:27.673Z,7.80
2023-03-27T05:18:30.814Z,6.70
2023-03-27T05:19:33.766Z,7.90
2023-03-27T05:20:36.845Z,12.10
2023-03-27T05:21:41.357Z,6.30
2023-03-27T05:22:45.927Z,6.30
2023-03-27T05:24:05.625Z,7.91
2023-03-27T05:25:08.583Z,7.70
2023-03-27T05:26:12.237Z,7.80
2023-03-27T05:27:22.132Z,6.80
2023-03-27T05:28:26.787Z,8.10
2023-03-27T05:29:29.084Z,7.55
2023-03-27T05:30:33.251Z,6.10
2023-03-27T05:31:43.394Z,6.30
2023-03-27T05:33:05.224Z,7.60
2023-03-27T05:34:07.531Z,9.00
2023-03-27T05:35:11.384Z,8.30
2023-03-27T05:36:15.606Z,8.20
2023-03-27T05:37:17.882Z,7.30
2023-03-27T05:38:22.211Z,8.40
2023-03-27T05:39:43.211Z,6.30
2023-03-27T05:40:45.647Z,8.40
2023-03-27T05:41:50.596Z,7.20
2023-03-27T05:42:55.898Z,8.70
2023-03-27T05:44:00.416Z,9.60
2023-03-27T05:45:05.058Z,8.40
2023-03-27T05:46:07.647Z,7.64
2023-03-27T05:47:11.556Z,8.40
2023-03-27T05:48:14.392Z,6.20
2023-03-27T05:49:17.398Z,8.00
2023-03-27T05:51:35.181Z,8.50
2023-03-27T05:52:37.446Z,8.18
2023-03-27T05:53:39.840Z,8.00
2023-03-27T05:54:52.747Z,9.90
2023-03-27T05:56:03.093Z,6.50
2023-03-27T05:56:59.401Z,8.70
2023-03-27T05:58:02.963Z,9.09
2023-03-27T05:59:05.328Z,7.45
2023-03-27T06:00:13.094Z,10.90
2023-03-27T06:01:17.345Z,7.80
2023-03-27T06:02:21.455Z,5.90
2023-03-27T06:03:31.660Z,7.00
2023-03-27T06:04:37.058Z,6.90
2023-03-27T06:05:43.730Z,6.20
2023-03-27T06:06:47.407Z,7.60
2023-03-27T06:07:50.382Z,8.50
2023-03-27T06:08:53.019Z,8.30
2023-03-27T06:09:55.857Z,6.00
2023-03-27T06:11:11.969Z,10.40
2023-03-27T06:12:18.811Z,6.90
2023-03-27T06:13:22.632Z,8.10
2023-03-27T06:14:26.942Z,6.60
2023-03-27T06:15:46.772Z,11.40
2023-03-27T06:16:54.196Z,10.00
2023-03-27T06:18:15.989Z,12.00
2023-03-27T06:19:18.831Z,10.70
2023-03-27T06:20:25.079Z,7.50
2023-03-27T06:21:28.706Z,12.20
2023-03-27T06:23:46.459Z,11.70
2023-03-27T06:24:49.535Z,13.10
2023-03-27T06:25:53.741Z,10.00
2023-03-27T06:26:58.149Z,9.70
2023-03-27T06:28:04.619Z,8.30
2023-03-27T06:29:09.937Z,9.40
2023-03-27T06:30:19.225Z,7.40
2023-03-27T06:31:23.708Z,7.50
2023-03-27T06:32:32.700Z,7.20
2023-03-27T06:33:35.013Z,7.90
2023-03-27T06:34:39.121Z,8.90
2023-03-27T06:35:52.936Z,9.10
2023-03-27T06:36:54.309Z,7.40
2023-03-27T06:37:57.096Z,6.40
2023-03-27T06:38:59.670Z,6.36
2023-03-27T06:40:03.912Z,7.70
2023-03-27T06:41:06.598Z,6.00
2023-03-27T06:43:27.525Z,7.80
2023-03-27T06:44:37.480Z,5.50
2023-03-27T06:45:53.668Z,8.10
2023-03-27T06:47:02.687Z,6.00
2023-03-27T06:48:16.955Z,5.10
2023-03-27T06:49:13.141Z,5.90
2023-03-27T06:50:16.952Z,6.80
2023-03-27T06:51:19.604Z,5.60
2023-03-27T06:52:22.546Z,6.50
2023-03-27T06:53:28.222Z,6.00
2023-03-27T06:54:29.567Z,5.60
2023-03-27T06:55:34.004Z,5.30
2023-03-27T06:56:37.709Z,5.50
2023-03-27T06:57:56.576Z,5.80
2023-03-27T06:58:59.036Z,7.00
2023-03-27T07:00:04.108Z,5.40
2023-03-27T07:01:13.937Z,7.50
2023-03-27T07:02:26.624Z,7.70
2023-03-27T07:03:47.941Z,5.80
2023-03-27T07:05:08.799Z,6.20
2023-03-27T07:06:13.271Z,7.20
2023-03-27T07:07:17.498Z,6.60
2023-03-27T07:08:25.196Z,6.36
2023-03-27T07:09:26.833Z,6.20
2023-03-27T07:10:34.932Z,4.20
2023-03-27T07:11:37.197Z,9.60
2023-03-27T07:12:45.685Z,9.10
2023-03-27T07:13:49.729Z,7.60
2023-03-27T07:14:53.819Z,8.40
2023-03-27T07:15:57.902Z,9.00
2023-03-27T07:17:00.530Z,8.80
2023-03-27T07:18:07.472Z,8.80
2023-03-27T07:19:10.378Z,9.30
2023-03-27T07:20:15.320Z,7.80
2023-03-27T07:21:17.511Z,7.30
2023-03-27T07:22:20.758Z,7.00
2023-03-27T07:23:23.658Z,7.10
2023-03-27T07:24:39.993Z,7.30
2023-03-27T07:25:43.025Z,7.90
2023-03-27T07:26:47.377Z,10.80
2023-03-27T07:27:51.877Z,12.40
2023-03-27T07:28:54.158Z,10.70
2023-03-27T07:29:57.767Z,5.70
2023-03-27T07:32:36.137Z,6.30
2023-03-27T07:33:28.709Z,5.80
2023-03-27T07:34:33.563Z,7.60
2023-03-27T07:36:53.471Z,5.20
2023-03-27T07:37:57.509Z,7.70
2023-03-27T07:39:11.765Z,6.20
2023-03-27T07:40:14.362Z,5.10
2023-03-27T07:41:20.519Z,5.60
2023-03-27T07:42:34.921Z,6.70
2023-03-27T07:43:39.785Z,5.10
2023-03-27T07:44:42.907Z,6.90
2023-03-27T07:45:45.081Z,6.80
2023-03-27T07:46:47.501Z,6.30
2023-03-27T07:47:50.037Z,6.40
2023-03-27T07:48:52.414Z,5.50
2023-03-27T07:49:56.851Z,9.00
2023-03-27T07:51:10.859Z,5.70
2023-03-27T07:52:05.192Z,6.40
2023-03-27T07:53:09.305Z,8.30
2023-03-27T07:54:13.512Z,8.00
2023-03-27T07:55:17.724Z,7.90
2023-03-27T07:56:22.549Z,6.80
2023-03-27T07:57:26.802Z,6.10
2023-03-27T07:58:31.493Z,7.80
2023-03-27T07:59:34.385Z,5.00
2023-03-27T08:00:39.324Z,7.70
2023-03-27T08:01:47.024Z,7.30
2023-03-27T08:02:50.166Z,6.82
2023-03-27T08:03:52.807Z,8.10
2023-03-27T08:04:55.997Z,7.00
2023-03-27T08:06:00.333Z,8.10
2023-03-27T08:07:04.598Z,7.70
2023-03-27T08:08:07.203Z,8.10
2023-03-27T08:09:23.465Z,6.40
2023-03-27T08:10:27.523Z,9.50
2023-03-27T08:11:32.434Z,8.00
2023-03-27T08:12:35.490Z,8.00
2023-03-27T08:13:38.134Z,7.10
2023-03-27T08:14:42.202Z,8.60
2023-03-27T08:15:46.359Z,8.40
2023-03-27T08:17:05.191Z,8.50
2023-03-27T08:18:01.781Z,9.40
2023-03-27T08:19:05.400Z,7.80
2023-03-27T08:20:10.065Z,8.00
2023-03-27T08:21:14.241Z,5.90
2023-03-27T08:22:18.459Z,6.40
2023-03-27T08:23:22.712Z,6.60
2023-03-27T08:24:44.131Z,7.30
2023-03-27T08:25:51.276Z,7.50
2023-03-27T08:26:54.965Z,8.40
2023-03-27T08:27:58.868Z,7.40
2023-03-27T08:29:01.861Z,6.80
2023-03-27T08:30:07.026Z,7.30
2023-03-27T08:31:16.203Z,8.30
2023-03-27T08:32:21.689Z,14.00
2023-03-27T08:33:25.700Z,7.30
2023-03-27T08:34:28.378Z,7.10
2023-03-27T08:35:31.135Z,7.00
2023-03-27T08:36:33.625Z,7.20
2023-03-27T08:37:37.795Z,8.10
2023-03-27T08:38:59.646Z,6.80
2023-03-27T08:41:31.473Z,5.20
2023-03-27T08:42:42.218Z,6.10
2023-03-27T08:43:46.732Z,5.90
2023-03-27T08:44:53.149Z,6.10
2023-03-27T08:46:06.955Z,6.30
2023-03-27T08:47:14.607Z,6.20
2023-03-27T08:48:53.978Z,5.50
2023-03-27T08:49:58.964Z,5.50
2023-03-27T08:51:15.393Z,6.50
2023-03-27T08:54:04.029Z,5.50
2023-03-27T08:55:20.045Z,5.30
2023-03-27T08:56:26.646Z,4.00
2023-03-27T08:57:31.816Z,4.30
2023-03-27T08:58:36.341Z,5.00
2023-03-27T08:59:56.321Z,5.45
2023-03-27T09:02:46.378Z,7.10
2023-03-27T09:04:11.406Z,12.30
2023-03-27T09:05:25.495Z,14.30
2023-03-27T09:06:37.315Z,10.50
2023-03-27T09:07:46.813Z,8.70
2023-03-27T09:09:10.298Z,7.90
2023-03-27T09:10:33.248Z,6.10
2023-03-27T09:11:50.720Z,5.50
2023-03-27T09:13:06.083Z,10.00
2023-03-27T09:16:43.529Z,6.50
2023-03-27T09:19:10.209Z,6.80
2023-03-27T09:21:41.467Z,6.00
2023-03-27T09:22:49.141Z,6.70
2023-03-27T09:23:56.314Z,7.40
2023-03-27T09:25:20.759Z,6.60
2023-03-27T09:26:42.406Z,6.40
2023-03-27T09:28:02.423Z,7.00
2023-03-27T09:29:24.534Z,6.00
2023-03-27T09:30:33.528Z,5.50
2023-03-27T09:31:43.740Z,6.70
2023-03-27T09:32:49.312Z,7.90
2023-03-27T09:33:52.274Z,5.40
2023-03-27T09:34:55.050Z,8.30
2023-03-27T09:35:58.227Z,3.82
2023-03-27T09:37:01.138Z,7.40
2023-03-27T09:38:20.316Z,5.18
2023-03-27T09:39:32.825Z,4.90
2023-03-27T09:40:59.121Z,7.10
2023-03-27T09:42:09.013Z,5.80
2023-03-27T09:43:23.732Z,6.20
2023-03-27T09:44:31.805Z,6.70
2023-03-27T09:45:37.725Z,6.90
2023-03-27T09:46:46.018Z,7.20
2023-03-27T09:49:17.258Z,6.80
2023-03-27T09:50:33.947Z,6.60
2023-03-27T09:53:17.835Z,5.70
2023-03-27T09:54:26.107Z,5.00
2023-03-27T09:55:30.862Z,5.00
2023-03-27T09:57:50.292Z,4.70
2023-03-27T09:58:53.003Z,4.80
2023-03-27T10:00:00.031Z,3.50
2023-03-27T10:01:28.866Z,3.90
2023-03-27T10:02:36.933Z,5.60
2023-03-27T10:03:52.570Z,4.10
2023-03-27T10:05:02.807Z,4.40
2023-03-27T10:06:13.208Z,4.20
2023-03-27T10:07:24.676Z,4.40
2023-03-27T10:08:44.257Z,3.80
2023-03-27T10:10:10.375Z,4.00
2023-03-27T10:11:17.705Z,4.60
2023-03-27T10:12:21.904Z,4.10
2023-03-27T10:13:28.229Z,5.20
2023-03-27T10:14:34.698Z,4.80
2023-03-27T10:15:40.133Z,4.20
2023-03-27T10:16:45.750Z,3.20
2023-03-27T10:17:48.869Z,2.80
2023-03-27T10:18:54.810Z,3.60
2023-03-27T10:20:00.948Z,5.10
2023-03-27T10:21:09.834Z,3.50
2023-03-27T10:22:25.423Z,3.40
2023-03-27T10:23:30.606Z,4.30
2023-03-27T10:24:36.310Z,4.20
2023-03-27T10:26:00.017Z,1.90
2023-03-27T10:27:06.949Z,2.40
2023-03-27T10:28:28.947Z,3.20
2023-03-27T10:29:38.966Z,2.90
2023-03-27T10:30:42.670Z,4.00
2023-03-27T10:32:04.461Z,3.70
2023-03-27T10:33:09.291Z,3.70
2023-03-27T10:34:37.897Z,3.40
2023-03-27T10:35:43.472Z,4.40
2023-03-27T10:36:55.280Z,4.70
2023-03-27T10:38:04.866Z,3.30
2023-03-27T10:40:40.068Z,4.40
2023-03-27T10:41:47.152Z,3.20
2023-03-27T10:42:51.131Z,3.20
2023-03-27T10:43:54.922Z,3.50
2023-03-27T10:44:59.667Z,2.80
2023-03-27T10:46:06.801Z,3.60
2023-03-27T10:48:43.863Z,1.70
2023-03-27T10:51:04.438Z,2.10
2023-03-27T10:52:27.257Z,2.90
2023-03-27T10:55:21.430Z,3.00
2023-03-27T10:56:46.095Z,1.70
2023-03-27T10:57:52.890Z,2.60
2023-03-27T10:59:03.890Z,2.50
2023-03-27T11:00:19.757Z,2.50
2023-03-27T11:01:27.374Z,3.10
2023-03-27T11:02:49.144Z,2.90
2023-03-27T11:04:04.679Z,2.90
2023-03-27T11:05:13.366Z,3.30
2023-03-27T11:06:20.827Z,4.00
2023-03-27T11:07:28.632Z,3.30
2023-03-27T11:10:30.269Z,3.00
2023-03-27T11:11:42.777Z,3.70
2023-03-27T11:13:00.639Z,3.10
2023-03-27T11:14:07.084Z,2.00
2023-03-27T11:15:13.561Z,4.20
2023-03-27T11:16:35.422Z,2.80
2023-03-27T11:17:59.893Z,2.70
2023-03-27T11:19:13.009Z,3.00
2023-03-27T11:23:14.918Z,3.00
2023-03-27T11:25:50.283Z,3.55
2023-03-27T11:28:44.485Z,5.70
2023-03-27T11:29:56.565Z,2.70
2023-03-27T11:31:12.181Z,2.20
2023-03-27T11:32:22.802Z,1.20
2023-03-27T11:33:50.998Z,2.90
2023-03-27T11:36:44.671Z,2.40
2023-03-27T11:37:55.040Z,2.30
2023-03-27T11:39:16.700Z,0.80
2023-03-27T11:40:24.532Z,1.50
2023-03-27T11:41:29.242Z,1.80
2023-03-27T11:43:46.383Z,2.10
2023-03-27T11:44:59.601Z,1.90
2023-03-27T11:46:25.524Z,2.10
2023-03-27T11:47:34.605Z,2.80
2023-03-27T11:49:00.148Z,2.30
2023-03-27T11:50:26.020Z,2.50
2023-03-27T11:51:56.045Z,4.10
2023-03-27T11:53:32.389Z,5.20
2023-03-27T11:56:18.582Z,11.30
2023-03-27T11:57:25.618Z,5.70
2023-03-27T11:58:42.462Z,5.40
2023-03-27T12:01:30.344Z,5.70
2023-03-27T12:02:46.622Z,4.60
2023-03-27T12:04:00.641Z,3.40
2023-03-27T12:05:21.110Z,2.10
2023-03-27T12:06:28.806Z,2.20
2023-03-27T12:07:55.736Z,4.10
2023-03-27T12:09:17.523Z,9.20
2023-03-27T12:10:31.723Z,10.20
2023-03-27T12:11:37.949Z,6.70
2023-03-27T12:13:06.627Z,4.60
2023-03-27T12:14:18.370Z,2.30
2023-03-27T12:15:34.226Z,2.60
2023-03-27T12:16:40.392Z,3.70
2023-03-27T12:18:02.320Z,4.30
2023-03-27T12:19:28.895Z,2.30
2023-03-27T12:20:53.057Z,3.60
2023-03-27T12:21:58.250Z,4.00
2023-03-27T12:23:19.253Z,3.00
2023-03-27T12:25:52.409Z,2.20
2023-03-27T12:27:22.863Z,2.30
2023-03-27T12:29:58.366Z,2.00
2023-03-27T12:31:22.909Z,1.80
2023-03-27T12:32:45.193Z,1.40
2023-03-27T12:35:34.722Z,1.50
2023-03-27T12:36:41.206Z,2.10
2023-03-27T12:38:02.217Z,2.40
2023-03-27T12:40:43.973Z,2.50
2023-03-27T12:41:48.612Z,1.60
2023-03-27T12:43:23.188Z,2.90
2023-03-27T12:44:31.722Z,0.00
2023-03-27T12:45:38.927Z,2.00
2023-03-27T12:46:41.318Z,1.50
2023-03-27T12:48:11.172Z,2.70
2023-03-27T12:49:19.228Z,2.70
2023-03-27T12:50:29.208Z,2.70
2023-03-27T12:51:47.953Z,2.80
2023-03-27T12:52:52.047Z,2.70
2023-03-27T12:53:56.169Z,3.00
2023-03-27T12:55:12.416Z,1.91
2023-03-27T12:57:47.103Z,3.00
2023-03-27T12:58:54.207Z,3.20
2023-03-27T13:00:00.083Z,3.50
2023-03-27T13:01:05.994Z,2.70
2023-03-27T13:02:19.064Z,2.30
2023-03-27T13:05:16.442Z,3.60
2023-03-27T13:06:14.350Z,2.00
2023-03-27T13:08:58.046Z,2.60
2023-03-27T13:10:38.320Z,3.50
2023-03-27T13:13:22.002Z,2.60
2023-03-27T13:14:31.991Z,3.10
2023-03-27T13:15:44.667Z,3.00
2023-03-27T13:16:54.053Z,3.10
2023-03-27T13:18:06.951Z,2.70
2023-03-27T13:19:26.943Z,1.00
2023-03-27T13:20:38.058Z,1.90
2023-03-27T13:22:00.834Z,1.50
2023-03-27T13:23:31.309Z,1.50
2023-03-27T13:24:51.890Z,1.60
2023-03-27T13:28:05.465Z,2.80
2023-03-27T13:29:24.302Z,2.00
2023-03-27T13:30:44.610Z,2.60
2023-03-27T13:32:26.701Z,1.70
2023-03-27T13:33:35.003Z,2.50
2023-03-27T13:34:41.699Z,2.80
2023-03-27T13:36:16.592Z,2.60
2023-03-27T13:37:36.844Z,0.80
2023-03-27T13:38:47.972Z,2.00
2023-03-27T13:40:00.469Z,2.10
2023-03-27T13:41:41.206Z,1.80
2023-03-27T13:42:48.895Z,2.30
2023-03-27T13:43:54.475Z,2.20
2023-03-27T13:45:08.648Z,2.30
2023-03-27T13:46:18.751Z,0.40
2023-03-27T13:47:35.835Z,2.30
2023-03-27T13:48:47.369Z,1.80
2023-03-27T13:50:22.744Z,1.50
2023-03-27T13:51:35.300Z,1.20
2023-03-27T13:52:44.690Z,1.80
2023-03-27T13:54:10.022Z,3.20
2023-03-27T13:55:20.846Z,1.80
2023-03-27T13:57:07.239Z,2.50
2023-03-27T13:58:41.249Z,1.90
2023-03-27T14:00:05.578Z,1.80
2023-03-27T14:01:57.136Z,1.30
2023-03-27T14:05:10.502Z,3.10
2023-03-27T14:06:17.923Z,5.70
2023-03-27T14:07:33.654Z,3.80
2023-03-27T14:10:52.665Z,4.70
2023-03-27T14:12:29.146Z,3.60
2023-03-27T14:13:56.366Z,3.50
2023-03-27T14:15:19.798Z,2.00
2023-03-27T14:16:33.468Z,2.00
2023-03-27T14:19:25.364Z,2.70
2023-03-27T14:20:31.571Z,2.00
2023-03-27T14:21:53.376Z,2.60
2023-03-27T14:23:08.714Z,2.60
2023-03-27T14:24:26.015Z,2.20
2023-03-27T14:25:33.663Z,3.00
2023-03-27T14:26:41.232Z,2.80
2023-03-27T14:27:51.838Z,3.40
2023-03-27T14:31:36.945Z,4.00
2023-03-27T14:32:44.729Z,0.60
2023-03-27T14:34:08.636Z,2.80
2023-03-27T14:35:37.603Z,1.50
2023-03-27T14:36:42.196Z,1.90
2023-03-27T14:39:22.533Z,3.20
2023-03-27T14:40:35.657Z,2.80
2023-03-27T14:41:48.271Z,2.20
2023-03-27T14:42:51.319Z,2.50
2023-03-27T14:43:58.405Z,5.30
2023-03-27T14:45:19.372Z,4.20
2023-03-27T14:46:24.126Z,3.10
2023-03-27T14:47:27.959Z,3.90
2023-03-27T14:49:46.992Z,4.70
2023-03-27T14:50:54.037Z,4.20
2023-03-27T14:52:00.020Z,4.70
2023-03-27T14:53:19.781Z,4.20
2023-03-27T14:54:54.394Z,5.40
2023-03-27T14:55:47.781Z,4.60
2023-03-27T14:56:59.882Z,5.90
2023-03-27T14:58:11.470Z,3.80
2023-03-27T15:00:32.751Z,3.40
2023-03-27T15:01:35.153Z,4.30
2023-03-27T15:02:39.042Z,3.80
2023-03-27T15:03:46.896Z,5.40
2023-03-27T15:04:49.597Z,4.40
2023-03-27T15:06:07.578Z,5.80
2023-03-27T15:07:23.217Z,5.10
2023-03-27T15:08:45.836Z,3.70
2023-03-27T15:12:36.452Z,4.60
2023-03-27T15:13:39.576Z,6.70
2023-03-27T15:14:43.778Z,7.40
2023-03-27T15:15:48.093Z,5.20
2023-03-27T15:17:05.858Z,6.50
2023-03-27T15:19:36.348Z,8.40
2023-03-27T15:21:55.746Z,9.30
2023-03-27T15:24:28.297Z,9.70
2023-03-27T15:25:46.024Z,7.10
2023-03-27T15:26:51.840Z,8.40
2023-03-27T15:27:57.636Z,8.00
2023-03-27T15:30:47.640Z,8.30
2023-03-27T15:31:53.123Z,10.30
2023-03-27T15:32:57.886Z,9.60
2023-03-27T15:35:17.551Z,9.40
2023-03-27T15:36:21.274Z,10.30
2023-03-27T15:37:26.019Z,11.40
2023-03-27T15:38:31.702Z,12.80
2023-03-27T15:39:35.264Z,13.60
2023-03-27T15:40:41.030Z,13.30
2023-03-27T15:41:43.329Z,11.20
2023-03-27T15:43:06.718Z,14.90
2023-03-27T15:44:12.695Z,15.30
2023-03-27T15:45:16.555Z,13.10
2023-03-27T15:46:20.670Z,15.30
2023-03-27T15:47:28.290Z,15.80
2023-03-27T15:48:35.709Z,12.70
2023-03-27T15:49:40.160Z,13.10
2023-03-27T15:51:00.380Z,13.70
2023-03-27T15:53:36.781Z,17.60
2023-03-27T15:54:42.698Z,13.90
2023-03-27T15:55:46.898Z,17.80
2023-03-27T15:56:53.527Z,20.70
2023-03-27T15:57:58.068Z,21.20
2023-03-27T16:00:14.105Z,16.60
2023-03-27T16:01:32.899Z,20.80
2023-03-27T16:02:36.540Z,19.50
2023-03-27T16:03:41.285Z,16.70
2023-03-27T16:04:52.365Z,20.30
2023-03-27T16:05:57.218Z,18.70
2023-03-27T16:08:36.971Z,21.09
2023-03-27T16:09:52.500Z,16.80
2023-03-27T16:10:54.860Z,16.80
2023-03-27T16:11:57.870Z,16.80
2023-03-27T16:13:02.228Z,17.00
2023-03-27T16:14:06.460Z,18.30
2023-03-27T16:16:36.400Z,14.50
2023-03-27T16:17:43.373Z,18.20
2023-03-27T16:18:46.628Z,19.50
2023-03-27T16:19:55.539Z,18.40
2023-03-27T16:21:13.334Z,16.50
2023-03-27T16:22:31.879Z,16.20
2023-03-27T16:23:34.555Z,17.50
2023-03-27T16:24:36.756Z,19.90
2023-03-27T16:25:38.973Z,20.90
2023-03-27T16:26:41.521Z,14.40
2023-03-27T16:27:47.049Z,17.20
2023-03-27T16:28:49.478Z,23.90
2023-03-27T16:29:52.035Z,20.20
2023-03-27T16:30:54.359Z,21.50
2023-03-27T16:31:56.617Z,23.40
2023-03-27T16:32:59.191Z,23.20
2023-03-27T16:34:04.482Z,8.40
2023-03-27T16:35:08.131Z,24.90
2023-03-27T16:37:25.947Z,22.10
2023-03-27T16:38:28.591Z,22.30
2023-03-27T16:39:30.832Z,22.30
2023-03-27T16:40:33.772Z,22.30
2023-03-27T16:41:36.378Z,22.90
2023-03-27T16:42:40.636Z,21.60
2023-03-27T16:43:44.333Z,20.80
2023-03-27T16:44:46.501Z,19.70
2023-03-27T16:45:49.698Z,19.50
2023-03-27T16:46:52.062Z,19.50
2023-03-27T16:47:54.866Z,18.10
2023-03-27T16:48:57.867Z,19.73
2023-03-27T16:50:10.379Z,20.73
2023-03-27T16:51:04.571Z,21.60
2023-03-27T16:52:07.384Z,16.90
2023-03-27T16:53:09.622Z,19.40
2023-03-27T16:54:13.619Z,20.60
2023-03-27T16:55:16.260Z,19.90
2023-03-27T16:56:19.896Z,24.90
2023-03-27T16:57:22.727Z,6.70
2023-03-27T16:58:24.933Z,21.91
2023-03-27T16:59:27.528Z,23.36